Time;durP1;ratioP1;P1;durP2;ratioP2;P2;SDS_P1;SDS_P2;PMS_P1;PMS_P2;Temp;Humidity;BMP_temperature;BMP_pressure;BME280_temperature;BME280_humidity;BME280_pressure;Samples;Min_cycle;Max_cycle;Signal;HPM_P1;HPM_P2
2023/03/10 00:00:25;;;;;;;0.60;0.60;;;;;;;8.89;65.32;94974.19;29395;228;63009;-59
2023/03/10 00:00:57;;;;;;;0.50;0.50;;;;;;;8.90;65.21;94970.37;29395;197;63018;-66
2023/03/10 00:01:30;;;;;;;0.50;0.50;;;;;;;8.87;65.27;94969.13;29394;199;64013;-64
2023/03/10 00:02:02;;;;;;;0.50;0.50;;;;;;;8.89;65.27;94964.16;29394;212;64009;-62
2023/03/10 00:02:34;;;;;;;0.50;0.50;;;;;;;8.90;65.35;94964.97;29395;233;63008;-67
2023/03/10 00:03:06;;;;;;;0.50;0.50;;;;;;;8.87;66.29;94971.03;29395;222;63004;-66
2023/03/10 00:03:37;;;;;;;0.50;0.50;;;;;;;8.83;65.92;94972.78;29395;274;63008;-61
2023/03/10 00:04:09;;;;;;;0.50;0.50;;;;;;;8.89;65.99;94963.37;29395;198;63010;-64
2023/03/10 00:04:40;;;;;;;0.50;0.50;;;;;;;8.87;66.01;94960.22;29395;233;63009;-63
2023/03/10 00:05:15;;;;;;;0.50;0.50;;;;;;;8.86;65.91;94958.62;29395;211;63005;-64
2023/03/10 00:05:47;;;;;;;0.50;0.50;;;;;;;8.86;65.87;94964.03;29395;283;63023;-56
2023/03/10 00:06:21;;;;;;;0.50;0.50;;;;;;;8.84;66.13;94963.56;29394;204;64009;-58
2023/03/10 00:06:56;;;;;;;0.50;0.50;;;;;;;8.79;66.11;94959.12;29395;234;63009;-68
2023/03/10 00:07:27;;;;;;;0.50;0.50;;;;;;;8.76;66.36;94959.00;29395;207;63000;-63
2023/03/10 00:07:59;;;;;;;0.50;0.50;;;;;;;8.72;66.19;94951.53;29395;247;63009;-64
2023/03/10 00:08:30;;;;;;;0.50;0.50;;;;;;;8.70;66.41;94945.66;29395;228;63004;-66
2023/03/10 00:09:02;;;;;;;0.50;0.50;;;;;;;8.71;66.46;94951.88;29395;274;63009;-67
2023/03/10 00:09:33;;;;;;;0.50;0.50;;;;;;;8.71;66.55;94946.47;29395;220;63004;-61
2023/03/10 00:11:14;;;;;;;0.50;0.50;;;;;;;8.91;66.31;94934.09;88174;209;64005;-64
2023/03/10 00:11:49;;;;;;;0.50;0.50;;;;;;;8.91;66.63;94934.88;29394;198;64009;-57
2023/03/10 00:12:21;;;;;;;0.50;0.50;;;;;;;8.88;66.62;94934.75;29395;280;63005;-68
2023/03/10 00:12:52;;;;;;;0.50;0.50;;;;;;;8.83;66.17;94926.81;29395;274;63009;-66
2023/03/10 00:13:24;;;;;;;0.50;0.50;;;;;;;8.79;66.74;94932.09;29395;203;63005;-57
2023/03/10 00:13:55;;;;;;;0.50;0.50;;;;;;;8.74;66.58;94927.66;29395;219;63009;-67
2023/03/10 00:14:26;;;;;;;0.50;0.50;;;;;;;8.69;67.95;94927.84;29395;235;63005;-57
2023/03/10 00:14:58;;;;;;;0.50;0.50;;;;;;;8.67;67.28;94930.09;29395;215;63009;-67
2023/03/10 00:15:30;;;;;;;0.50;0.50;;;;;;;8.64;67.33;94922.66;29395;220;63005;-67
2023/03/10 00:16:03;;;;;;;0.50;0.50;;;;;;;8.62;67.32;94919.50;29395;199;63009;-63
2023/03/10 00:16:34;;;;;;;0.50;0.50;;;;;;;8.61;67.42;94920.62;29395;219;63004;-66
2023/03/10 00:17:06;;;;;;;0.50;0.50;;;;;;;8.59;67.46;94927.47;29394;212;64013;-57
2023/03/10 00:17:38;;;;;;;0.50;0.50;;;;;;;8.57;67.44;94927.78;29395;208;63004;-68
2023/03/10 00:18:10;;;;;;;0.50;0.50;;;;;;;8.54;67.94;94925.75;29394;229;64013;-65
2023/03/10 00:18:41;;;;;;;0.50;0.50;;;;;;;8.55;67.75;94923.84;29395;207;63004;-67
2023/03/10 00:19:13;;;;;;;0.50;0.50;;;;;;;8.58;67.05;94915.88;29395;204;63009;-67
2023/03/10 00:19:44;;;;;;;0.50;0.50;;;;;;;8.57;67.21;94914.28;29395;197;63005;-65
2023/03/10 00:20:16;;;;;;;0.50;0.50;;;;;;;8.57;67.04;94916.97;29395;226;63009;-65
2023/03/10 00:20:53;;;;;;;0.50;0.50;;;;;;;8.59;66.91;94917.44;29395;220;63005;-66
2023/03/10 00:21:28;;;;;;;0.50;0.50;;;;;;;8.61;66.77;94917.91;29395;223;63009;-64
2023/03/10 00:22:02;;;;;;;0.50;0.50;;;;;;;8.59;66.78;94916.66;29394;203;63998;-57
2023/03/10 00:22:34;;;;;;;0.50;0.50;;;;;;;8.57;66.85;94919.69;29395;239;63009;-67
2023/03/10 00:23:07;;;;;;;0.50;0.50;;;;;;;8.55;67.01;94918.44;29395;275;63005;-69
2023/03/10 00:23:38;;;;;;;0.50;0.50;;;;;;;8.53;67.22;94918.75;29394;216;64013;-57
2023/03/10 00:24:09;;;;;;;0.50;0.50;;;;;;;8.50;67.00;94919.41;29395;203;63004;-65
2023/03/10 00:24:42;;;;;;;0.50;0.50;;;;;;;8.48;66.92;94916.22;29394;212;64013;-67
2023/03/10 00:25:16;;;;;;;0.50;0.50;;;;;;;8.47;67.28;94917.34;29395;228;63008;-58
2023/03/10 00:25:59;;;;;;;0.50;0.50;;;;;;;8.47;66.77;94909.25;29395;271;63008;-67
2023/03/10 00:26:30;;;;;;;0.50;0.50;;;;;;;8.44;67.17;94912.59;29395;227;63005;-67
2023/03/10 00:27:01;;;;;;;0.50;0.50;;;;;;;8.44;66.88;94904.50;29395;224;63009;-66
2023/03/10 00:27:33;;;;;;;0.50;0.50;;;;;;;8.43;67.19;94902.13;29395;234;63005;-63
2023/03/10 00:28:07;;;;;;;0.50;0.50;;;;;;;8.41;67.05;94905.12;29394;273;64014;-65
2023/03/10 00:28:40;;;;;;;0.50;0.50;;;;;;;8.41;66.92;94899.75;29395;203;63005;-71
2023/03/10 00:29:12;;;;;;;0.50;0.50;;;;;;;8.42;67.09;94904.03;29395;264;63009;-64
2023/03/10 00:29:44;;;;;;;0.50;0.50;;;;;;;8.41;66.89;94894.34;29395;200;63005;-69
2023/03/10 00:30:16;;;;;;;0.50;0.50;;;;;;;8.46;66.25;94901.47;29395;200;63009;-67
2023/03/10 00:31:10;;;;;;;0.50;0.50;;;;;;;8.46;66.51;94893.34;29395;213;63004;-57
2023/03/10 00:31:42;;;;;;;0.50;0.50;;;;;;;8.41;66.47;94883.53;29394;337;64013;-65
2023/03/10 00:32:14;;;;;;;0.50;0.50;;;;;;;8.39;66.89;94891.16;29395;224;63004;-69
2023/03/10 00:32:49;;;;;;;0.50;0.50;;;;;;;8.36;66.58;94898.00;29395;276;63009;-68
2023/03/10 00:33:20;;;;;;;0.50;0.50;;;;;;;8.37;66.69;94893.41;29395;213;63004;-57
2023/03/10 00:33:51;;;;;;;0.50;0.50;;;;;;;8.39;66.70;94885.75;29395;231;63008;-70
2023/03/10 00:34:24;;;;;;;0.50;0.50;;;;;;;8.38;66.65;94879.56;29395;394;63005;-65
2023/03/10 00:34:56;;;;;;;0.50;0.50;;;;;;;8.40;66.35;94884.63;29395;219;63005;-69
2023/03/10 00:35:28;;;;;;;0.50;0.50;;;;;;;8.40;66.63;94888.13;29395;226;63005;-66
2023/03/10 00:36:15;;;;;;;0.50;0.50;;;;;;;8.44;66.64;94877.47;29395;309;63009;-66
2023/03/10 00:36:46;;;;;;;0.50;0.50;;;;;;;8.44;66.35;94885.56;29394;218;64009;-67
2023/03/10 00:37:18;;;;;;;0.50;0.50;;;;;;;8.47;66.37;94887.63;29395;197;63009;-67
2023/03/10 00:37:50;;;;;;;0.50;0.50;;;;;;;8.46;66.19;94880.63;29395;204;63005;-66
2023/03/10 00:38:22;;;;;;;0.50;0.50;;;;;;;8.45;66.51;94879.06;29395;202;63009;-66
2023/03/10 00:38:55;;;;;;;0.50;0.50;;;;;;;8.45;66.92;94870.94;29395;357;63004;-64
2023/03/10 00:39:26;;;;;;;0.50;0.50;;;;;;;8.45;66.85;94872.84;29395;210;63009;-64
2023/03/10 00:39:57;;;;;;;0.50;0.50;;;;;;;8.44;67.19;94876.69;29395;216;63004;-68
2023/03/10 00:40:29;;;;;;;0.50;0.50;;;;;;;8.48;66.77;94881.09;29395;213;63009;-63
2023/03/10 00:41:03;;;;;;;0.50;0.50;;;;;;;8.47;67.35;94876.81;29395;230;63004;-68
2023/03/10 00:41:37;;;;;;;0.50;0.50;;;;;;;8.49;66.85;94868.38;29395;218;63008;-66
2023/03/10 00:42:12;;;;;;;0.50;0.50;;;;;;;8.47;67.00;94866.00;29394;227;64009;-59
2023/03/10 00:42:44;;;;;;;0.50;0.50;;;;;;;8.47;67.02;94871.41;29395;231;63009;-66
2023/03/10 00:43:15;;;;;;;0.50;0.50;;;;;;;8.45;67.40;94876.34;29395;205;63005;-66
2023/03/10 00:43:47;;;;;;;0.50;0.50;;;;;;;8.42;67.62;94877.00;29395;333;63009;-69
2023/03/10 00:44:22;;;;;;;0.50;0.50;;;;;;;8.42;67.89;94870.81;29395;271;63005;-70
2023/03/10 00:44:53;;;;;;;0.50;0.50;;;;;;;8.41;67.43;94872.72;29395;222;63005;-67
2023/03/10 00:45:25;;;;;;;0.50;0.50;;;;;;;8.41;67.45;94872.72;29395;226;63005;-64
2023/03/10 00:46:01;;;;;;;0.50;0.50;;;;;;;8.41;67.66;94872.72;29395;238;63009;-64
2023/03/10 00:46:33;;;;;;;0.50;0.50;;;;;;;8.42;67.64;94879.69;29395;203;63004;-69
2023/03/10 00:47:05;;;;;;;0.50;0.50;;;;;;;8.42;67.61;94874.28;29395;210;63009;-66
2023/03/10 00:47:37;;;;;;;0.50;0.50;;;;;;;8.42;67.64;94868.91;29394;210;64009;-67
2023/03/10 00:48:08;;;;;;;0.50;0.50;;;;;;;8.41;67.77;94867.31;29395;229;63009;-57
2023/03/10 00:48:40;;;;;;;0.50;0.50;;;;;;;8.39;68.50;94875.75;29395;211;63004;-66
2023/03/10 00:49:15;;;;;;;0.50;0.50;;;;;;;8.42;68.21;94868.91;29394;196;64014;-67
2023/03/10 00:49:50;;;;;;;0.50;0.50;;;;;;;8.42;68.26;94871.59;29395;329;63009;-67
2023/03/10 00:50:21;;;;;;;0.50;0.50;;;;;;;8.41;68.48;94867.31;29395;202;63009;-65
2023/03/10 00:50:54;;;;;;;0.50;0.50;;;;;;;8.39;68.60;94869.53;29395;212;63005;-67
2023/03/10 00:51:25;;;;;;;0.50;0.50;;;;;;;8.43;68.45;94870.47;29395;198;63009;-70
2023/03/10 00:51:57;;;;;;;0.50;0.50;;;;;;;8.45;68.35;94867.44;29395;209;63005;-63
2023/03/10 00:52:32;;;;;;;0.50;0.50;;;;;;;8.44;68.40;94866.66;29395;215;63009;-58
2023/03/10 00:53:03;;;;;;;0.50;0.50;;;;;;;8.43;68.27;94865.06;29395;247;63005;-64
2023/03/10 00:53:36;;;;;;;0.50;0.50;;;;;;;8.41;69.50;94872.72;29395;229;63009;-66
2023/03/10 00:54:09;;;;;;;0.50;0.50;;;;;;;8.37;69.43;94869.88;29394;213;64009;-64
2023/03/10 00:54:40;;;;;;;0.50;0.50;;;;;;;8.37;69.51;94866.38;29394;297;64013;-63
2023/03/10 00:55:12;;;;;;;0.50;0.50;;;;;;;8.36;69.17;94856.69;29395;211;63004;-67
2023/03/10 00:55:44;;;;;;;0.50;0.50;;;;;;;8.34;69.35;94856.22;29395;253;63017;-65
2023/03/10 00:56:18;;;;;;;0.50;0.50;;;;;;;8.34;69.55;94862.41;29395;245;63004;-63
2023/03/10 00:56:49;;;;;;;0.50;0.50;;;;;;;8.34;69.20;94861.63;29395;249;63009;-66
2023/03/10 00:57:21;;;;;;;0.50;0.50;;;;;;;8.34;69.75;94861.63;29395;203;63005;-68
2023/03/10 00:57:52;;;;;;;0.50;0.50;;;;;;;8.33;70.16;94866.25;29395;209;63009;-64
2023/03/10 00:58:24;;;;;;;0.50;0.50;;;;;;;8.30;70.43;94864.19;29395;216;63005;-67
2023/03/10 00:58:58;;;;;;;0.50;0.50;;;;;;;8.29;69.95;94859.91;29395;240;63009;-64
2023/03/10 00:59:29;;;;;;;0.50;0.50;;;;;;;8.28;70.24;94862.94;29394;285;64009;-67
2023/03/10 01:00:00;;;;;;;0.50;0.50;;;;;;;8.29;69.81;94859.09;29394;204;64013;-58
2023/03/10 01:00:32;;;;;;;0.50;0.50;;;;;;;8.32;70.14;94853.84;29395;216;63005;-66
2023/03/10 01:01:04;;;;;;;0.50;0.50;;;;;;;8.37;70.04;94856.34;29395;327;63009;-62
2023/03/10 01:01:39;;;;;;;0.50;0.50;;;;;;;8.38;69.87;94854.44;29395;250;63004;-67
2023/03/10 01:02:10;;;;;;;0.50;0.50;;;;;;;8.39;69.76;94845.22;29395;209;63009;-64
2023/03/10 01:02:42;;;;;;;0.50;0.50;;;;;;;8.38;69.95;94846.34;29395;304;63004;-56
2023/03/10 01:03:14;;;;;;;0.50;0.50;;;;;;;8.35;70.03;94847.78;29395;258;63009;-56
2023/03/10 01:03:46;;;;;;;0.50;0.50;;;;;;;8.33;70.15;94844.62;29395;244;63004;-66
2023/03/10 01:04:20;;;;;;;0.50;0.50;;;;;;;8.32;69.67;94850.31;29395;217;63009;-67
2023/03/10 01:04:51;;;;;;;0.50;0.50;;;;;;;8.31;69.98;94851.47;29394;335;64009;-66
2023/03/10 01:05:23;;;;;;;0.50;0.50;;;;;;;8.31;69.74;94840.66;29395;299;63009;-56
2023/03/10 01:05:56;;;;;;;0.50;0.50;;;;;;;8.31;70.00;94835.25;29395;278;63013;-64
2023/03/10 01:06:28;;;;;;;0.50;0.50;;;;;;;8.31;69.95;94840.66;29395;220;63009;-65
2023/03/10 01:06:59;;;;;;;0.50;0.50;;;;;;;8.30;70.06;94839.06;29394;232;64009;-64
2023/03/10 01:07:30;;;;;;;0.50;0.50;;;;;;;8.30;69.90;94839.88;29395;225;63016;-65
2023/03/10 01:08:02;;;;;;;0.50;0.50;;;;;;;8.30;70.23;94844.47;29395;232;63012;-62
2023/03/10 01:08:33;;;;;;;0.50;0.50;;;;;;;8.30;70.22;94849.88;29395;225;63009;-64
2023/03/10 01:09:06;;;;;;;0.50;0.50;;;;;;;8.31;70.46;94846.84;29395;224;63011;-68
2023/03/10 01:09:37;;;;;;;0.50;0.50;;;;;;;8.31;70.31;94841.44;29395;251;63016;-67
2023/03/10 01:10:10;;;;;;;0.50;0.50;;;;;;;8.33;70.22;94843.81;29395;344;63004;-68
2023/03/10 01:10:41;;;;;;;0.50;0.50;;;;;;;8.33;70.34;94838.44;29394;283;64013;-66
2023/03/10 01:11:18;;;;;;;0.50;0.50;;;;;;;8.32;70.45;94836.81;29395;308;63004;-57
2023/03/10 01:11:49;;;;;;;0.50;0.50;;;;;;;8.32;70.68;94843.03;29395;340;63009;-63
2023/03/10 01:12:20;;;;;;;0.50;0.50;;;;;;;8.30;70.53;94839.06;29395;227;63005;-57
2023/03/10 01:12:52;;;;;;;0.45;0.45;;;;;;;8.30;70.70;94839.06;29395;227;63009;-57
2023/03/10 01:13:23;;;;;;;0.50;0.50;;;;;;;8.31;70.50;94846.06;29395;221;63005;-64
2023/03/10 01:13:59;;;;;;;0.50;0.50;;;;;;;8.31;70.63;94841.44;29395;274;63009;-63
2023/03/10 01:14:31;;;;;;;0.50;0.50;;;;;;;8.31;70.77;94840.66;29394;217;63999;-57
2023/03/10 01:15:03;;;;;;;0.50;0.50;;;;;;;8.29;70.67;94838.28;29395;210;63009;-56
2023/03/10 01:15:35;;;;;;;0.50;0.50;;;;;;;8.28;70.76;94842.09;29395;197;63004;-67
2023/03/10 01:16:07;;;;;;;0.50;0.50;;;;;;;8.26;70.88;94838.94;29395;218;63009;-62
2023/03/10 01:16:38;;;;;;;0.50;0.50;;;;;;;8.27;70.83;94842.44;29395;221;63008;-63
2023/03/10 01:17:10;;;;;;;0.50;0.50;;;;;;;8.31;70.85;94835.25;29395;252;63009;-64
2023/03/10 01:17:44;;;;;;;0.50;0.50;;;;;;;8.32;70.84;94831.41;29395;207;63008;-67
2023/03/10 01:18:17;;;;;;;0.50;0.50;;;;;;;8.32;70.76;94832.22;29395;230;63008;-57
2023/03/10 01:18:52;;;;;;;0.50;0.50;;;;;;;8.32;70.76;94832.22;29395;197;63009;-66
2023/03/10 01:19:23;;;;;;;0.50;0.50;;;;;;;8.32;70.55;94826.81;29394;225;64014;-57
2023/03/10 01:19:54;;;;;;;0.50;0.50;;;;;;;8.32;70.74;94834.94;29394;241;64009;-64
2023/03/10 01:20:25;;;;;;;0.50;0.50;;;;;;;8.36;70.94;94826.97;29395;319;63009;-67
2023/03/10 01:20:58;;;;;;;0.50;0.50;;;;;;;8.35;70.60;94836.19;29395;229;63005;-66
2023/03/10 01:21:33;;;;;;;0.50;0.50;;;;;;;8.35;70.65;94822.69;29395;238;63020;-66
2023/03/10 01:22:07;;;;;;;0.50;0.50;;;;;;;8.34;70.58;94823.78;29395;215;63005;-67
2023/03/10 01:22:40;;;;;;;0.50;0.50;;;;;;;8.31;70.96;94827.16;29395;257;63009;-57
2023/03/10 01:23:18;;;;;;;0.50;0.50;;;;;;;8.27;71.27;94829.72;29395;233;63004;-57
2023/03/10 01:23:49;;;;;;;0.50;0.50;;;;;;;8.27;70.98;94826.22;29395;220;63023;-70
2023/03/10 01:24:20;;;;;;;0.50;0.50;;;;;;;8.28;70.86;94815.09;29395;282;63004;-56
2023/03/10 01:24:53;;;;;;;0.50;0.50;;;;;;;8.28;71.00;94814.28;29394;347;64013;-66
2023/03/10 01:25:24;;;;;;;0.50;0.50;;;;;;;8.29;70.79;94821.28;29395;202;63004;-67
2023/03/10 01:25:55;;;;;;;0.50;0.50;;;;;;;8.31;70.74;94825.25;29395;202;63014;-67
2023/03/10 01:27:35;;;;;;;0.50;0.50;;;;;;;8.37;70.62;94817.72;88174;210;64005;-68
2023/03/10 01:28:10;;;;;;;0.50;0.50;;;;;;;8.37;70.82;94817.72;29394;198;64008;-67
2023/03/10 01:28:42;;;;;;;0.50;0.50;;;;;;;8.34;70.17;94815.69;29395;225;63005;-66
2023/03/10 01:29:13;;;;;;;0.50;0.50;;;;;;;8.33;70.72;94816.81;29395;278;63009;-64
2023/03/10 01:29:44;;;;;;;0.52;0.52;;;;;;;8.31;70.69;94819.03;29395;228;63017;-65
2023/03/10 01:30:17;;;;;;;0.50;0.50;;;;;;;8.28;70.63;94809.69;29394;231;64013;-65
2023/03/10 01:30:50;;;;;;;0.50;0.50;;;;;;;8.30;70.76;94812.06;29395;261;63005;-73
2023/03/10 01:31:23;;;;;;;0.50;0.50;;;;;;;8.31;70.36;94808.22;29395;209;63009;-57
2023/03/10 01:31:54;;;;;;;0.50;0.50;;;;;;;8.30;70.62;94814.75;29395;263;63005;-67
2023/03/10 01:32:26;;;;;;;0.50;0.50;;;;;;;8.33;70.48;94812.19;29395;198;63009;-63
2023/03/10 01:33:00;;;;;;;0.50;0.50;;;;;;;8.32;70.54;94816.00;29395;215;63004;-66
2023/03/10 01:33:38;;;;;;;0.60;0.60;;;;;;;8.30;70.65;94817.47;29395;202;63009;-68
2023/03/10 01:34:09;;;;;;;0.50;0.50;;;;;;;8.25;70.57;94820.34;29395;203;63005;-67
2023/03/10 01:34:40;;;;;;;0.50;0.50;;;;;;;8.23;70.76;94811.78;29395;208;63009;-67
2023/03/10 01:35:12;;;;;;;0.50;0.50;;;;;;;8.21;71.01;94814.03;29394;292;64009;-63
2023/03/10 01:35:44;;;;;;;0.50;0.50;;;;;;;8.19;70.74;94819.75;29395;202;63019;-66
2023/03/10 01:36:18;;;;;;;0.50;0.50;;;;;;;8.18;71.12;94815.47;29395;247;63005;-66
2023/03/10 01:36:51;;;;;;;0.50;0.50;;;;;;;8.17;71.25;94813.09;29395;267;63009;-68
2023/03/10 01:37:23;;;;;;;0.50;0.50;;;;;;;8.14;72.00;94819.13;29395;312;63005;-68
2023/03/10 01:37:55;;;;;;;0.50;0.50;;;;;;;8.13;71.63;94812.94;29395;204;63027;-66
2023/03/10 01:38:26;;;;;;;0.50;0.50;;;;;;;8.13;71.34;94817.56;29394;220;64009;-65
2023/03/10 01:38:59;;;;;;;0.50;0.50;;;;;;;8.13;71.43;94812.16;29395;212;63009;-65
2023/03/10 01:39:30;;;;;;;0.50;0.50;;;;;;;8.12;71.37;94810.56;29395;223;63005;-65
2023/03/10 01:40:04;;;;;;;0.50;0.50;;;;;;;8.16;71.44;94811.50;29395;256;63009;-67
2023/03/10 01:40:37;;;;;;;0.50;0.50;;;;;;;8.16;71.62;94811.50;29395;227;63004;-70
2023/03/10 01:41:09;;;;;;;1.25;1.25;;;;;;;8.16;71.19;94806.09;29395;238;63009;-56
2023/03/10 01:41:41;;;;;;;0.50;0.50;;;;;;;8.14;70.97;94808.34;29395;205;63004;-67
2023/03/10 01:42:12;;;;;;;0.50;0.50;;;;;;;8.13;71.17;94804.06;29395;226;63009;-70
2023/03/10 01:42:45;;;;;;;0.50;0.50;;;;;;;8.10;71.71;94810.91;29395;239;63004;-67
2023/03/10 01:43:27;;;;;;;0.50;0.50;;;;;;;8.17;70.94;94796.88;29395;220;63008;-71
2023/03/10 01:43:58;;;;;;;0.50;0.50;;;;;;;8.18;70.97;94798.47;29394;217;64009;-61
2023/03/10 01:44:30;;;;;;;0.50;0.50;;;;;;;8.19;70.83;94800.84;29395;294;63009;-68
2023/03/10 01:45:50;;;;;;;0.50;0.50;;;;;;;8.24;70.47;94803.34;29395;222;63005;-67
2023/03/10 01:46:48;;;;;;;0.50;0.50;;;;;;;8.27;70.09;94796.50;29395;210;63009;-70
2023/03/10 01:47:35;;;;;;;0.50;0.50;;;;;;;8.26;70.02;94803.03;29395;248;63005;-67
2023/03/10 01:48:07;;;;;;;0.50;0.50;;;;;;;8.23;70.21;94801.75;29395;235;63009;-63
2023/03/10 01:48:41;;;;;;;0.50;0.50;;;;;;;8.21;70.28;94803.22;29395;202;63004;-61
2023/03/10 01:49:28;;;;;;;0.50;0.50;;;;;;;8.21;70.23;94797.81;29394;234;64013;-63
2023/03/10 01:50:03;;;;;;;0.50;0.50;;;;;;;8.24;69.87;94797.16;29395;241;63004;-65
2023/03/10 01:50:35;;;;;;;0.70;0.70;;;;;;;8.39;69.57;94793.88;29395;209;63019;-58
2023/03/10 01:51:06;;;;;;;0.50;0.50;;;;;;;8.46;68.95;94794.16;29395;370;63004;-63
2023/03/10 01:51:40;;;;;;;0.52;0.52;;;;;;;8.47;68.77;94790.31;29395;199;63009;-64
2023/03/10 01:52:24;;;;;;;0.50;0.50;;;;;;;8.47;68.86;94793.03;29395;263;63005;-62
2023/03/10 01:52:57;;;;;;;0.50;0.50;;;;;;;8.48;68.93;94801.94;29395;288;63009;-63
2023/03/10 01:53:29;;;;;;;0.50;0.50;;;;;;;8.44;68.71;94801.78;29395;220;63018;-65
2023/03/10 01:54:06;;;;;;;0.50;0.50;;;;;;;8.42;68.99;94808.66;29395;317;63009;-61
2023/03/10 01:55:00;;;;;;;0.50;0.50;;;;;;;8.38;69.12;94803.09;29394;238;64009;-63
2023/03/10 01:55:38;;;;;;;0.50;0.50;;;;;;;8.49;68.97;94798.91;29395;295;63009;-59
2023/03/10 01:56:10;;;;;;;0.50;0.50;;;;;;;8.56;68.76;94799.16;29395;280;63004;-66
2023/03/10 01:56:42;;;;;;;0.50;0.50;;;;;;;8.55;68.53;94797.59;29395;209;63009;-64
2023/03/10 01:57:16;;;;;;;0.50;0.50;;;;;;;8.56;68.65;94787.56;29395;255;63004;-66
2023/03/10 01:57:52;;;;;;;0.50;0.50;;;;;;;8.53;68.52;94786.31;29395;196;63009;-66
2023/03/10 01:58:29;;;;;;;0.50;0.50;;;;;;;8.51;68.46;94793.97;29394;196;64008;-57
2023/03/10 01:59:01;;;;;;;0.50;0.50;;;;;;;8.48;68.85;94807.34;29395;225;63017;-70
2023/03/10 01:59:34;;;;;;;0.50;0.50;;;;;;;8.46;68.96;94799.56;29395;220;63008;-62
2023/03/10 02:00:15;;;;;;;0.50;0.50;;;;;;;8.47;68.79;94795.72;29394;197;64014;-65
2023/03/10 02:00:46;;;;;;;0.60;0.60;;;;;;;8.49;68.66;94792.69;29417;262;63005;-58
2023/03/10 02:01:17;;;;;;;0.50;0.50;;;;;;;8.45;68.83;94797.97;29394;222;64013;-66
2023/03/10 02:01:51;;;;;;;0.50;0.50;;;;;;;8.44;68.68;94790.97;29395;244;63005;-63
2023/03/10 02:02:23;;;;;;;0.50;0.50;;;;;;;8.42;69.01;94793.22;29395;242;63018;-56
2023/03/10 02:03:15;;;;;;;0.50;0.50;;;;;;;8.41;69.09;94791.62;29394;302;64009;-57
2023/03/10 02:04:01;;;;;;;0.50;0.50;;;;;;;8.39;69.07;94791.97;29395;218;63009;-66
2023/03/10 02:04:39;;;;;;;0.50;0.50;;;;;;;8.43;69.43;94788.59;29395;202;63004;-64
2023/03/10 02:05:13;;;;;;;0.50;0.50;;;;;;;8.46;68.79;94788.75;29395;243;63008;-58
2023/03/10 02:05:52;;;;;;;0.50;0.50;;;;;;;8.45;69.25;94787.16;29394;206;64008;-67
2023/03/10 02:06:28;;;;;;;0.50;0.50;;;;;;;8.44;68.88;94784.78;29417;252;63009;-57
2023/03/10 02:07:02;;;;;;;0.60;0.60;;;;;;;8.46;69.17;94788.75;29395;355;63010;-66
2023/03/10 02:07:34;;;;;;;0.60;0.60;;;;;;;8.53;69.27;94783.59;29395;223;63024;-66
2023/03/10 02:08:07;;;;;;;0.50;0.50;;;;;;;8.55;69.12;94786.78;29395;220;63005;-65
2023/03/10 02:08:47;;;;;;;0.50;0.50;;;;;;;8.64;68.59;94784.78;29395;219;63009;-57
2023/03/10 02:09:20;;;;;;;0.50;0.50;;;;;;;8.71;68.80;94789.63;29395;226;63005;-59
2023/03/10 02:09:52;;;;;;;0.80;0.80;;;;;;;8.72;68.64;94785.81;29395;252;63018;-62
2023/03/10 02:10:25;;;;;;;0.95;0.93;;;;;;;8.73;68.51;94782.78;29395;304;63007;-58
2023/03/10 02:10:58;;;;;;;0.50;0.50;;;;;;;8.67;69.06;94783.31;29394;212;64013;-57
2023/03/10 02:11:30;;;;;;;0.50;0.50;;;;;;;8.67;69.03;94778.69;29395;222;63004;-65
2023/03/10 02:12:04;;;;;;;0.50;0.50;;;;;;;8.64;69.05;94779.37;29394;208;64009;-63
2023/03/10 02:12:35;;;;;;;0.50;0.50;;;;;;;8.68;69.01;94772.16;29395;207;63004;-57
2023/03/10 02:13:07;;;;;;;0.50;0.50;;;;;;;8.64;68.90;94782.09;29395;199;63020;-56
2023/03/10 02:13:38;;;;;;;0.60;0.60;;;;;;;8.64;68.92;94773.19;29395;219;63005;-69
2023/03/10 02:14:09;;;;;;;0.50;0.50;;;;;;;8.59;69.41;94779.59;29395;212;63009;-65
2023/03/10 02:14:43;;;;;;;0.50;0.50;;;;;;;8.59;69.54;94776.09;29395;202;63005;-67
2023/03/10 02:15:16;;;;;;;0.50;0.50;;;;;;;8.57;69.56;94775.62;29394;210;64013;-64
2023/03/10 02:15:47;;;;;;;0.50;0.50;;;;;;;8.53;69.64;94783.59;29395;200;63005;-66
2023/03/10 02:16:19;;;;;;;0.50;0.50;;;;;;;8.47;70.38;94787.63;29395;336;63009;-64
2023/03/10 02:16:53;;;;;;;0.50;0.50;;;;;;;8.52;70.32;94776.62;29395;231;63016;-62
2023/03/10 02:17:26;;;;;;;0.50;0.50;;;;;;;8.64;69.85;94773.97;29395;275;63009;-63
2023/03/10 02:17:58;;;;;;;0.50;0.50;;;;;;;8.67;69.53;94773.28;29395;257;63004;-56
2023/03/10 02:18:31;;;;;;;0.50;0.50;;;;;;;8.70;69.18;94780.72;29395;282;63009;-58
2023/03/10 02:19:09;;;;;;;0.50;0.50;;;;;;;8.73;69.42;94771.16;29395;208;63004;-57
2023/03/10 02:20:22;;;;;;;0.50;0.50;;;;;;;8.73;69.45;94771.97;29394;221;64013;-67
2023/03/10 02:21:37;;;;;;;0.50;0.50;;;;;;;8.77;69.51;94774.00;29395;209;63005;-63
2023/03/10 02:22:11;;;;;;;0.50;0.50;;;;;;;8.72;69.88;94772.28;29395;267;63025;-57
2023/03/10 02:22:42;;;;;;;0.50;0.50;;;;;;;8.70;70.87;94780.72;29394;207;64009;-56
2023/03/10 02:23:30;;;;;;;0.50;0.50;;;;;;;8.62;70.92;94781.63;29394;215;64013;-72
2023/03/10 02:24:30;;;;;;;0.50;0.50;;;;;;;8.71;71.03;94776.91;29394;262;64009;-63
2023/03/10 02:25:46;;;;;;;0.50;0.50;;;;;;;8.72;70.48;94770.38;29395;196;63014;-68
2023/03/10 02:26:29;;;;;;;0.60;0.60;;;;;;;8.74;71.01;94773.53;29394;212;64013;-59
2023/03/10 02:27:24;;;;;;;0.50;0.50;;;;;;;8.69;71.40;94770.25;29395;209;63004;-58
2023/03/10 02:27:56;;;;;;;0.50;0.50;;;;;;;8.64;71.41;94767.78;29394;239;64013;-67
2023/03/10 02:28:28;;;;;;;0.50;0.50;;;;;;;8.59;72.32;94782.28;29395;205;63005;-57
2023/03/10 02:29:03;;;;;;;0.50;0.50;;;;;;;8.57;72.21;94776.41;29395;218;63009;-56
2023/03/10 02:29:45;;;;;;;0.50;0.50;;;;;;;8.65;72.09;94775.56;29394;197;64009;-58
2023/03/10 02:30:36;;;;;;;0.60;0.60;;;;;;;8.70;72.18;94771.84;29395;197;63009;-57
2023/03/10 02:31:09;;;;;;;0.50;0.50;;;;;;;8.70;72.06;94766.44;29417;284;63005;-66
2023/03/10 02:31:43;;;;;;;0.50;0.50;;;;;;;8.69;72.39;94768.34;29394;221;64009;-67
2023/03/10 02:32:17;;;;;;;0.50;0.50;;;;;;;8.65;72.33;94770.16;29395;218;63005;-71
2023/03/10 02:32:52;;;;;;;0.50;0.50;;;;;;;8.64;72.82;94763.16;29395;214;63017;-66
2023/03/10 02:33:26;;;;;;;0.50;0.50;;;;;;;8.64;73.32;94767.78;29395;207;63004;-56
2023/03/10 02:33:59;;;;;;;0.50;0.50;;;;;;;8.61;73.06;94763.81;29395;280;63009;-64
2023/03/10 02:34:33;;;;;;;0.50;0.50;;;;;;;8.66;73.34;94760.13;29395;298;63015;-62
2023/03/10 02:35:05;;;;;;;0.50;0.50;;;;;;;8.64;73.69;94760.47;29395;211;63008;-66
2023/03/10 02:35:37;;;;;;;0.50;0.50;;;;;;;8.58;73.87;94766.41;29395;295;63004;-64
2023/03/10 02:36:20;;;;;;;0.50;0.50;;;;;;;8.50;73.83;94762.63;29395;202;63017;-64
2023/03/10 02:36:52;;;;;;;0.50;0.50;;;;;;;8.49;73.69;94763.75;29394;212;64005;-58
2023/03/10 02:37:31;;;;;;;0.45;0.45;;;;;;;8.53;74.16;94770.09;29395;256;63009;-65
2023/03/10 02:38:03;;;;;;;0.50;0.50;;;;;;;8.57;74.06;94756.72;29395;249;63005;-65
2023/03/10 02:38:34;;;;;;;0.50;0.50;;;;;;;8.56;74.65;94757.81;29394;218;64009;-57
2023/03/10 02:39:06;;;;;;;0.52;0.52;;;;;;;8.56;74.49;94761.31;29395;216;63005;-65
2023/03/10 02:39:38;;;;;;;0.50;0.50;;;;;;;8.66;74.43;94766.28;29395;333;63009;-58
2023/03/10 02:40:35;;;;;;;0.60;0.60;;;;;;;8.71;73.90;94757.97;29395;378;63004;-62
2023/03/10 02:41:37;;;;;;;0.60;0.60;;;;;;;8.65;74.23;94756.63;29395;372;63009;-63
2023/03/10 02:42:10;;;;;;;0.60;0.60;;;;;;;8.64;74.16;94765.88;29438;223;64004;-65
2023/03/10 02:42:41;;;;;;;0.50;0.50;;;;;;;8.61;74.15;94766.53;29371;237;64008;-62
2023/03/10 02:43:25;;;;;;;0.50;0.50;;;;;;;8.56;74.52;94761.31;29395;203;63004;-68
2023/03/10 02:43:59;;;;;;;0.50;0.50;;;;;;;8.53;74.54;94770.09;29394;210;64009;-64
2023/03/10 02:44:32;;;;;;;0.50;0.50;;;;;;;8.54;75.16;94763.56;29394;227;64005;-56
2023/03/10 02:45:05;;;;;;;0.50;0.50;;;;;;;8.53;75.04;94764.69;29395;339;63009;-64
2023/03/10 02:45:40;;;;;;;0.50;0.50;;;;;;;8.52;75.30;94759.59;29394;329;63993;-62
2023/03/10 02:46:12;;;;;;;0.50;0.50;;;;;;;8.54;75.14;94774.38;29395;318;63009;-63
2023/03/10 02:46:43;;;;;;;0.50;0.50;;;;;;;8.52;74.84;94770.41;29395;228;63005;-68
2023/03/10 02:47:15;;;;;;;0.62;0.62;;;;;;;8.57;75.37;94764.81;29395;202;63009;-65
2023/03/10 02:47:46;;;;;;;0.60;0.60;;;;;;;8.63;74.91;94772.41;29395;225;63004;-71
2023/03/10 02:48:29;;;;;;;0.50;0.50;;;;;;;8.61;75.16;94769.22;29395;243;63009;-57
2023/03/10 02:49:03;;;;;;;0.50;0.50;;;;;;;8.55;75.25;94764.34;29395;311;63004;-64